TAF and METAR

Decoding for American and Canadian METARs and TAFs is not fully implemented.

Could not understand the following METAR

PACZ 242355Z AUTO 26001KT 10SM OVC027 14/09 A3005 RMK AO2 SLP178 T01360087 10142 20114 58010
No TAF available for Cape Romanzof Long Range Radar Station